sensor_id;sensor_type;location;lat;lon;timestamp;temperature;humidity
7958;DHT22;4024;52.172;5.378;2022-09-09T00:03:42;18.10;99.90
7958;DHT22;4024;52.172;5.378;2022-09-09T00:06:21;18.00;99.90
7958;DHT22;4024;52.172;5.378;2022-09-09T00:09:12;18.10;99.90
7958;DHT22;4024;52.172;5.378;2022-09-09T00:14:56;18.00;99.90
7958;DHT22;4024;52.172;5.378;2022-09-09T00:18:27;18.10;99.90
7958;DHT22;4024;52.172;5.378;2022-09-09T00:21:03;18.10;99.90
7958;DHT22;4024;52.172;5.378;2022-09-09T00:23:35;18.10;99.90
7958;DHT22;4024;52.172;5.378;2022-09-09T00:26:42;18.10;99.90
7958;DHT22;4024;52.172;5.378;2022-09-09T00:32:09;18.10;99.90
7958;DHT22;4024;52.172;5.378;2022-09-09T00:34:49;18.10;99.90
7958;DHT22;4024;52.172;5.378;2022-09-09T00:37:18;18.10;99.90
7958;DHT22;4024;52.172;5.378;2022-09-09T00:39:48;18.10;99.90
7958;DHT22;4024;52.172;5.378;2022-09-09T00:42:16;18.00;99.90
7958;DHT22;4024;52.172;5.378;2022-09-09T00:56:03;18.00;99.90
7958;DHT22;4024;52.172;5.378;2022-09-09T00:58:32;18.00;99.90
7958;DHT22;4024;52.172;5.378;2022-09-09T01:01:05;17.90;99.90
7958;DHT22;4024;52.172;5.378;2022-09-09T01:12:29;17.80;99.90
7958;DHT22;4024;52.172;5.378;2022-09-09T01:15:18;17.80;99.90
7958;DHT22;4024;52.172;5.378;2022-09-09T01:18:01;17.80;99.90
7958;DHT22;4024;52.172;5.378;2022-09-09T01:20:37;17.80;99.90
7958;DHT22;4024;52.172;5.378;2022-09-09T01:26:32;17.70;99.90
7958;DHT22;4024;52.172;5.378;2022-09-09T01:28:59;17.60;99.90
7958;DHT22;4024;52.172;5.378;2022-09-09T01:31:30;17.70;99.90
7958;DHT22;4024;52.172;5.378;2022-09-09T01:33:57;17.60;99.90
7958;DHT22;4024;52.172;5.378;2022-09-09T01:36:31;17.60;99.90
7958;DHT22;4024;52.172;5.378;2022-09-09T01:38:59;17.50;99.90
7958;DHT22;4024;52.172;5.378;2022-09-09T01:41:25;17.50;99.90
7958;DHT22;4024;52.172;5.378;2022-09-09T01:43:52;17.50;99.90
7958;DHT22;4024;52.172;5.378;2022-09-09T01:46:21;17.50;99.90
7958;DHT22;4024;52.172;5.378;2022-09-09T01:48:50;17.40;99.90
7958;DHT22;4024;52.172;5.378;2022-09-09T01:51:16;17.40;99.90
7958;DHT22;4024;52.172;5.378;2022-09-09T01:53:43;17.40;99.90
7958;DHT22;4024;52.172;5.378;2022-09-09T02:01:33;17.30;99.90
7958;DHT22;4024;52.172;5.378;2022-09-09T02:04:08;17.30;99.90
7958;DHT22;4024;52.172;5.378;2022-09-09T02:06:38;17.30;99.90
7958;DHT22;4024;52.172;5.378;2022-09-09T02:09:07;17.30;99.90
7958;DHT22;4024;52.172;5.378;2022-09-09T02:11:36;17.30;99.90
7958;DHT22;4024;52.172;5.378;2022-09-09T02:14:16;17.20;99.90
7958;DHT22;4024;52.172;5.378;2022-09-09T02:17:06;17.20;99.90
7958;DHT22;4024;52.172;5.378;2022-09-09T02:19:37;17.20;99.90
7958;DHT22;4024;52.172;5.378;2022-09-09T02:22:04;17.10;99.90
7958;DHT22;4024;52.172;5.378;2022-09-09T02:24:34;17.20;99.90
7958;DHT22;4024;52.172;5.378;2022-09-09T02:27:02;17.10;99.90
7958;DHT22;4024;52.172;5.378;2022-09-09T02:29:35;17.10;99.90
7958;DHT22;4024;52.172;5.378;2022-09-09T02:32:05;17.10;99.90
7958;DHT22;4024;52.172;5.378;2022-09-09T02:34:36;17.00;99.90
7958;DHT22;4024;52.172;5.378;2022-09-09T02:37:07;17.00;99.90
7958;DHT22;4024;52.172;5.378;2022-09-09T02:39:33;17.00;99.90
7958;DHT22;4024;52.172;5.378;2022-09-09T02:41:59;17.00;99.90
7958;DHT22;4024;52.172;5.378;2022-09-09T02:44:25;17.00;99.90
7958;DHT22;4024;52.172;5.378;2022-09-09T02:47:05;17.00;99.90
7958;DHT22;4024;52.172;5.378;2022-09-09T02:49:49;17.00;99.90
7958;DHT22;4024;52.172;5.378;2022-09-09T02:52:20;17.00;99.90
7958;DHT22;4024;52.172;5.378;2022-09-09T02:54:57;17.00;99.90
7958;DHT22;4024;52.172;5.378;2022-09-09T02:57:27;17.00;99.90
7958;DHT22;4024;52.172;5.378;2022-09-09T02:59:53;17.00;99.90
7958;DHT22;4024;52.172;5.378;2022-09-09T03:02:22;17.00;99.90
7958;DHT22;4024;52.172;5.378;2022-09-09T03:04:48;17.00;99.90
7958;DHT22;4024;52.172;5.378;2022-09-09T03:07:17;17.10;99.90
7958;DHT22;4024;52.172;5.378;2022-09-09T03:09:43;16.90;99.90
7958;DHT22;4024;52.172;5.378;2022-09-09T03:12:09;16.90;99.90
7958;DHT22;4024;52.172;5.378;2022-09-09T03:14:36;16.90;99.90
7958;DHT22;4024;52.172;5.378;2022-09-09T03:17:05;16.90;99.90
7958;DHT22;4024;52.172;5.378;2022-09-09T03:19:31;16.90;99.90
7958;DHT22;4024;52.172;5.378;2022-09-09T03:21:57;16.90;99.90
7958;DHT22;4024;52.172;5.378;2022-09-09T03:24:24;16.80;99.90
7958;DHT22;4024;52.172;5.378;2022-09-09T03:26:49;16.80;99.90
7958;DHT22;4024;52.172;5.378;2022-09-09T03:29:16;16.80;99.90
7958;DHT22;4024;52.172;5.378;2022-09-09T03:31:43;16.80;99.90
7958;DHT22;4024;52.172;5.378;2022-09-09T03:34:10;16.80;99.90
7958;DHT22;4024;52.172;5.378;2022-09-09T03:36:36;16.70;99.90
7958;DHT22;4024;52.172;5.378;2022-09-09T03:39:03;16.70;99.90
7958;DHT22;4024;52.172;5.378;2022-09-09T03:41:29;16.70;99.90
7958;DHT22;4024;52.172;5.378;2022-09-09T03:43:55;16.70;99.90
7958;DHT22;4024;52.172;5.378;2022-09-09T03:46:23;16.70;99.90
7958;DHT22;4024;52.172;5.378;2022-09-09T03:48:49;16.70;99.90
7958;DHT22;4024;52.172;5.378;2022-09-09T03:51:15;16.60;99.90
7958;DHT22;4024;52.172;5.378;2022-09-09T03:53:41;16.60;99.90
7958;DHT22;4024;52.172;5.378;2022-09-09T03:56:08;16.60;99.90
7958;DHT22;4024;52.172;5.378;2022-09-09T03:58:35;16.60;99.90
7958;DHT22;4024;52.172;5.378;2022-09-09T04:01:11;16.60;99.90
7958;DHT22;4024;52.172;5.378;2022-09-09T04:03:41;16.60;99.90
7958;DHT22;4024;52.172;5.378;2022-09-09T04:06:09;16.50;99.90
7958;DHT22;4024;52.172;5.378;2022-09-09T04:08:37;16.50;99.90
7958;DHT22;4024;52.172;5.378;2022-09-09T04:11:04;16.50;99.90
7958;DHT22;4024;52.172;5.378;2022-09-09T04:13:32;16.50;99.90
7958;DHT22;4024;52.172;5.378;2022-09-09T04:16:00;16.50;99.90
7958;DHT22;4024;52.172;5.378;2022-09-09T04:18:26;16.50;99.90
7958;DHT22;4024;52.172;5.378;2022-09-09T04:20:53;16.50;99.90
7958;DHT22;4024;52.172;5.378;2022-09-09T04:23:20;16.50;99.90
7958;DHT22;4024;52.172;5.378;2022-09-09T04:25:50;16.40;99.90
7958;DHT22;4024;52.172;5.378;2022-09-09T04:28:18;16.40;99.90
7958;DHT22;4024;52.172;5.378;2022-09-09T04:30:44;16.40;99.90
7958;DHT22;4024;52.172;5.378;2022-09-09T04:33:11;16.40;99.90
7958;DHT22;4024;52.172;5.378;2022-09-09T04:35:37;16.40;99.90
7958;DHT22;4024;52.172;5.378;2022-09-09T04:38:04;16.40;99.90
7958;DHT22;4024;52.172;5.378;2022-09-09T04:40:31;16.40;99.90
7958;DHT22;4024;52.172;5.378;2022-09-09T04:43:00;16.40;99.90
7958;DHT22;4024;52.172;5.378;2022-09-09T04:45:27;16.40;99.90
7958;DHT22;4024;52.172;5.378;2022-09-09T04:47:53;16.40;99.90
7958;DHT22;4024;52.172;5.378;2022-09-09T04:50:19;16.40;99.90
7958;DHT22;4024;52.172;5.378;2022-09-09T04:52:44;16.40;99.90
7958;DHT22;4024;52.172;5.378;2022-09-09T04:55:10;16.50;99.90
7958;DHT22;4024;52.172;5.378;2022-09-09T04:57:37;16.50;99.90
7958;DHT22;4024;52.172;5.378;2022-09-09T05:00:03;16.50;99.90
7958;DHT22;4024;52.172;5.378;2022-09-09T05:02:29;16.50;99.90
7958;DHT22;4024;52.172;5.378;2022-09-09T05:04:55;16.50;99.90
7958;DHT22;4024;52.172;5.378;2022-09-09T05:07:21;16.50;99.90
7958;DHT22;4024;52.172;5.378;2022-09-09T05:09:47;16.50;99.90
7958;DHT22;4024;52.172;5.378;2022-09-09T05:12:15;16.50;99.90
7958;DHT22;4024;52.172;5.378;2022-09-09T05:14:44;16.50;99.90
7958;DHT22;4024;52.172;5.378;2022-09-09T05:17:10;16.40;99.90
7958;DHT22;4024;52.172;5.378;2022-09-09T05:19:36;16.40;99.90
7958;DHT22;4024;52.172;5.378;2022-09-09T05:22:02;16.50;99.90
7958;DHT22;4024;52.172;5.378;2022-09-09T05:24:27;16.50;99.90
7958;DHT22;4024;52.172;5.378;2022-09-09T05:26:53;16.40;99.90
7958;DHT22;4024;52.172;5.378;2022-09-09T05:29:19;16.40;99.90
7958;DHT22;4024;52.172;5.378;2022-09-09T05:31:45;16.40;99.90
7958;DHT22;4024;52.172;5.378;2022-09-09T05:34:11;16.50;99.90
7958;DHT22;4024;52.172;5.378;2022-09-09T05:36:37;16.40;99.90
7958;DHT22;4024;52.172;5.378;2022-09-09T05:39:03;16.40;99.90
7958;DHT22;4024;52.172;5.378;2022-09-09T05:41:29;16.40;99.90
7958;DHT22;4024;52.172;5.378;2022-09-09T05:43:55;16.40;99.90
7958;DHT22;4024;52.172;5.378;2022-09-09T05:46:22;16.40;99.90
7958;DHT22;4024;52.172;5.378;2022-09-09T05:48:50;16.40;99.90
7958;DHT22;4024;52.172;5.378;2022-09-09T05:51:26;16.40;99.90
7958;DHT22;4024;52.172;5.378;2022-09-09T05:53:53;16.40;99.90
7958;DHT22;4024;52.172;5.378;2022-09-09T05:56:23;16.40;99.90
7958;DHT22;4024;52.172;5.378;2022-09-09T05:58:50;16.50;99.90
7958;DHT22;4024;52.172;5.378;2022-09-09T06:01:19;16.50;99.90
7958;DHT22;4024;52.172;5.378;2022-09-09T06:03:46;16.50;99.90
7958;DHT22;4024;52.172;5.378;2022-09-09T06:06:17;16.50;99.90
7958;DHT22;4024;52.172;5.378;2022-09-09T06:08:44;16.50;99.90
7958;DHT22;4024;52.172;5.378;2022-09-09T06:11:12;16.50;99.90
7958;DHT22;4024;52.172;5.378;2022-09-09T06:13:39;16.60;99.90
7958;DHT22;4024;52.172;5.378;2022-09-09T06:16:16;16.60;99.90
7958;DHT22;4024;52.172;5.378;2022-09-09T06:18:42;16.70;99.90
7958;DHT22;4024;52.172;5.378;2022-09-09T06:21:15;16.60;99.90
7958;DHT22;4024;52.172;5.378;2022-09-09T06:23:41;16.70;99.90
7958;DHT22;4024;52.172;5.378;2022-09-09T06:26:11;16.70;99.90
7958;DHT22;4024;52.172;5.378;2022-09-09T06:28:37;16.70;99.90
7958;DHT22;4024;52.172;5.378;2022-09-09T06:31:05;16.80;99.90
7958;DHT22;4024;52.172;5.378;2022-09-09T06:33:33;16.80;99.90
7958;DHT22;4024;52.172;5.378;2022-09-09T06:36:00;16.80;99.90
7958;DHT22;4024;52.172;5.378;2022-09-09T06:38:26;16.90;99.90
7958;DHT22;4024;52.172;5.378;2022-09-09T06:40:53;16.90;99.90
7958;DHT22;4024;52.172;5.378;2022-09-09T06:43:21;16.90;99.90
7958;DHT22;4024;52.172;5.378;2022-09-09T06:48:20;17.00;99.90
7958;DHT22;4024;52.172;5.378;2022-09-09T06:50:45;17.10;99.90
7958;DHT22;4024;52.172;5.378;2022-09-09T06:53:11;17.20;99.90
7958;DHT22;4024;52.172;5.378;2022-09-09T06:55:37;17.10;99.90
7958;DHT22;4024;52.172;5.378;2022-09-09T06:58:08;17.30;99.90
7958;DHT22;4024;52.172;5.378;2022-09-09T07:00:34;17.40;99.90
7958;DHT22;4024;52.172;5.378;2022-09-09T07:03:03;17.50;99.90
7958;DHT22;4024;52.172;5.378;2022-09-09T07:05:28;17.60;99.90
7958;DHT22;4024;52.172;5.378;2022-09-09T07:07:54;17.70;99.90
7958;DHT22;4024;52.172;5.378;2022-09-09T07:10:28;17.80;99.90
7958;DHT22;4024;52.172;5.378;2022-09-09T07:12:53;17.90;99.90
7958;DHT22;4024;52.172;5.378;2022-09-09T07:15:20;18.00;99.90
7958;DHT22;4024;52.172;5.378;2022-09-09T07:17:46;18.10;99.90
7958;DHT22;4024;52.172;5.378;2022-09-09T07:20:14;18.30;99.90
7958;DHT22;4024;52.172;5.378;2022-09-09T07:22:40;18.30;99.90
7958;DHT22;4024;52.172;5.378;2022-09-09T07:25:07;18.30;99.90
7958;DHT22;4024;52.172;5.378;2022-09-09T07:27:32;18.50;99.90
7958;DHT22;4024;52.172;5.378;2022-09-09T07:29:58;18.50;99.90
7958;DHT22;4024;52.172;5.378;2022-09-09T07:32:24;18.50;99.90
7958;DHT22;4024;52.172;5.378;2022-09-09T07:34:51;18.60;99.90
7958;DHT22;4024;52.172;5.378;2022-09-09T07:37:17;18.60;99.90
7958;DHT22;4024;52.172;5.378;2022-09-09T07:39:43;18.60;99.90
7958;DHT22;4024;52.172;5.378;2022-09-09T07:42:09;18.60;99.90
7958;DHT22;4024;52.172;5.378;2022-09-09T07:44:37;18.60;99.90
7958;DHT22;4024;52.172;5.378;2022-09-09T07:47:05;18.70;99.90
7958;DHT22;4024;52.172;5.378;2022-09-09T07:49:31;18.70;99.90
7958;DHT22;4024;52.172;5.378;2022-09-09T07:51:58;18.80;99.90
7958;DHT22;4024;52.172;5.378;2022-09-09T07:54:26;18.90;99.90
7958;DHT22;4024;52.172;5.378;2022-09-09T07:56:53;19.00;99.90
7958;DHT22;4024;52.172;5.378;2022-09-09T07:59:18;19.10;99.90
7958;DHT22;4024;52.172;5.378;2022-09-09T08:01:47;19.20;99.90
7958;DHT22;4024;52.172;5.378;2022-09-09T08:04:16;19.30;99.90
7958;DHT22;4024;52.172;5.378;2022-09-09T08:06:48;19.40;99.90
7958;DHT22;4024;52.172;5.378;2022-09-09T08:09:14;19.50;99.90
7958;DHT22;4024;52.172;5.378;2022-09-09T08:11:41;19.50;99.90
7958;DHT22;4024;52.172;5.378;2022-09-09T08:14:07;19.60;99.90
7958;DHT22;4024;52.172;5.378;2022-09-09T08:16:36;19.60;99.90
7958;DHT22;4024;52.172;5.378;2022-09-09T08:19:03;19.60;99.90
7958;DHT22;4024;52.172;5.378;2022-09-09T08:21:31;19.70;99.90
7958;DHT22;4024;52.172;5.378;2022-09-09T08:23:59;19.60;99.90
7958;DHT22;4024;52.172;5.378;2022-09-09T08:26:35;19.60;99.90
7958;DHT22;4024;52.172;5.378;2022-09-09T08:29:02;19.60;99.90
7958;DHT22;4024;52.172;5.378;2022-09-09T08:31:31;19.50;99.90
7958;DHT22;4024;52.172;5.378;2022-09-09T08:33:58;19.50;99.90
7958;DHT22;4024;52.172;5.378;2022-09-09T08:36:30;19.50;99.90
7958;DHT22;4024;52.172;5.378;2022-09-09T08:38:58;19.40;99.90
7958;DHT22;4024;52.172;5.378;2022-09-09T08:41:49;19.40;99.90
7958;DHT22;4024;52.172;5.378;2022-09-09T08:50:02;19.30;99.90
7958;DHT22;4024;52.172;5.378;2022-09-09T08:52:56;19.30;99.90
7958;DHT22;4024;52.172;5.378;2022-09-09T08:55:38;19.30;99.90
7958;DHT22;4024;52.172;5.378;2022-09-09T08:58:13;19.30;99.90
7958;DHT22;4024;52.172;5.378;2022-09-09T09:06:13;19.40;99.90
7958;DHT22;4024;52.172;5.378;2022-09-09T09:11:21;19.40;99.90
7958;DHT22;4024;52.172;5.378;2022-09-09T09:14:03;19.40;99.90
7958;DHT22;4024;52.172;5.378;2022-09-09T09:16:39;19.40;99.90
7958;DHT22;4024;52.172;5.378;2022-09-09T09:19:14;19.50;99.90
7958;DHT22;4024;52.172;5.378;2022-09-09T09:21:45;19.50;99.90
7958;DHT22;4024;52.172;5.378;2022-09-09T09:24:29;19.40;99.90
7958;DHT22;4024;52.172;5.378;2022-09-09T09:26:59;19.40;99.90
7958;DHT22;4024;52.172;5.378;2022-09-09T09:29:26;19.40;99.90
7958;DHT22;4024;52.172;5.378;2022-09-09T09:31:54;19.40;99.90
7958;DHT22;4024;52.172;5.378;2022-09-09T09:34:21;19.50;99.90
7958;DHT22;4024;52.172;5.378;2022-09-09T09:36:59;19.40;99.90
7958;DHT22;4024;52.172;5.378;2022-09-09T09:39:31;19.40;99.90
7958;DHT22;4024;52.172;5.378;2022-09-09T09:42:10;19.40;99.90
7958;DHT22;4024;52.172;5.378;2022-09-09T09:44:38;19.40;99.90
7958;DHT22;4024;52.172;5.378;2022-09-09T09:47:11;19.40;99.90
7958;DHT22;4024;52.172;5.378;2022-09-09T09:49:38;19.40;99.90
7958;DHT22;4024;52.172;5.378;2022-09-09T09:52:06;19.50;99.90
7958;DHT22;4024;52.172;5.378;2022-09-09T09:54:41;19.50;99.90
7958;DHT22;4024;52.172;5.378;2022-09-09T09:57:16;19.50;99.90
7958;DHT22;4024;52.172;5.378;2022-09-09T09:59:42;19.60;99.90
7958;DHT22;4024;52.172;5.378;2022-09-09T10:02:17;19.50;99.90
7958;DHT22;4024;52.172;5.378;2022-09-09T10:04:43;19.60;99.90
7958;DHT22;4024;52.172;5.378;2022-09-09T10:07:20;19.60;99.90
7958;DHT22;4024;52.172;5.378;2022-09-09T10:09:53;19.60;99.90
7958;DHT22;4024;52.172;5.378;2022-09-09T10:15:07;19.60;99.90
7958;DHT22;4024;52.172;5.378;2022-09-09T10:17:54;19.60;99.90
7958;DHT22;4024;52.172;5.378;2022-09-09T10:20:40;19.70;99.90
7958;DHT22;4024;52.172;5.378;2022-09-09T10:26:05;19.70;99.90
7958;DHT22;4024;52.172;5.378;2022-09-09T10:31:49;19.70;99.90
7958;DHT22;4024;52.172;5.378;2022-09-09T10:34:45;19.70;99.90
7958;DHT22;4024;52.172;5.378;2022-09-09T10:40:13;19.70;99.90
7958;DHT22;4024;52.172;5.378;2022-09-09T10:42:41;19.70;99.90
7958;DHT22;4024;52.172;5.378;2022-09-09T10:45:17;19.70;99.90
7958;DHT22;4024;52.172;5.378;2022-09-09T10:48:11;19.70;99.90
7958;DHT22;4024;52.172;5.378;2022-09-09T10:51:00;19.70;99.90
7958;DHT22;4024;52.172;5.378;2022-09-09T10:56:16;19.70;99.90
7958;DHT22;4024;52.172;5.378;2022-09-09T11:01:24;19.80;99.90
7958;DHT22;4024;52.172;5.378;2022-09-09T11:04:09;19.70;99.90
7958;DHT22;4024;52.172;5.378;2022-09-09T11:06:39;19.80;99.90
7958;DHT22;4024;52.172;5.378;2022-09-09T11:09:15;19.80;99.90
7958;DHT22;4024;52.172;5.378;2022-09-09T11:11:49;19.80;99.90
7958;DHT22;4024;52.172;5.378;2022-09-09T11:17:09;19.90;99.90
7958;DHT22;4024;52.172;5.378;2022-09-09T11:19:42;20.10;99.90
7958;DHT22;4024;52.172;5.378;2022-09-09T11:25:14;20.20;99.90
7958;DHT22;4024;52.172;5.378;2022-09-09T11:41:06;20.60;99.90
7958;DHT22;4024;52.172;5.378;2022-09-09T11:43:44;20.60;99.90
7958;DHT22;4024;52.172;5.378;2022-09-09T11:46:12;20.60;99.90
7958;DHT22;4024;52.172;5.378;2022-09-09T11:48:41;20.60;99.90
7958;DHT22;4024;52.172;5.378;2022-09-09T11:51:27;20.60;99.90
7958;DHT22;4024;52.172;5.378;2022-09-09T11:54:01;20.60;99.90
7958;DHT22;4024;52.172;5.378;2022-09-09T11:56:42;20.70;99.90
7958;DHT22;4024;52.172;5.378;2022-09-09T11:59:28;20.60;99.90
7958;DHT22;4024;52.172;5.378;2022-09-09T12:01:57;20.70;99.90
7958;DHT22;4024;52.172;5.378;2022-09-09T12:06:56;20.80;99.90
7958;DHT22;4024;52.172;5.378;2022-09-09T12:09:33;20.70;99.90
7958;DHT22;4024;52.172;5.378;2022-09-09T12:14:54;20.70;99.90
7958;DHT22;4024;52.172;5.378;2022-09-09T12:17:24;20.70;99.90
7958;DHT22;4024;52.172;5.378;2022-09-09T12:20:11;20.70;99.90
7958;DHT22;4024;52.172;5.378;2022-09-09T12:31:43;20.80;99.90
7958;DHT22;4024;52.172;5.378;2022-09-09T12:34:17;20.80;99.90
7958;DHT22;4024;52.172;5.378;2022-09-09T12:36:47;20.80;99.90
7958;DHT22;4024;52.172;5.378;2022-09-09T12:39:24;20.70;99.90
7958;DHT22;4024;52.172;5.378;2022-09-09T12:41:55;20.70;99.90
7958;DHT22;4024;52.172;5.378;2022-09-09T12:44:23;20.70;99.90
7958;DHT22;4024;52.172;5.378;2022-09-09T12:46:51;20.60;99.90
7958;DHT22;4024;52.172;5.378;2022-09-09T12:49:37;20.60;99.90
7958;DHT22;4024;52.172;5.378;2022-09-09T12:52:08;20.70;99.90
7958;DHT22;4024;52.172;5.378;2022-09-09T12:54:37;20.80;99.90
7958;DHT22;4024;52.172;5.378;2022-09-09T12:57:04;20.80;99.90
7958;DHT22;4024;52.172;5.378;2022-09-09T12:59:38;20.80;99.90
7958;DHT22;4024;52.172;5.378;2022-09-09T13:02:26;20.80;99.90
7958;DHT22;4024;52.172;5.378;2022-09-09T13:05:08;20.80;99.90
7958;DHT22;4024;52.172;5.378;2022-09-09T13:07:39;20.90;99.90
7958;DHT22;4024;52.172;5.378;2022-09-09T13:10:04;20.90;99.90
7958;DHT22;4024;52.172;5.378;2022-09-09T13:12:31;20.90;99.90
7958;DHT22;4024;52.172;5.378;2022-09-09T13:14:57;20.90;99.90
7958;DHT22;4024;52.172;5.378;2022-09-09T13:17:27;20.90;99.90
7958;DHT22;4024;52.172;5.378;2022-09-09T13:19:55;21.00;99.90
7958;DHT22;4024;52.172;5.378;2022-09-09T13:27:39;21.20;99.90
7958;DHT22;4024;52.172;5.378;2022-09-09T13:30:20;21.20;99.90
7958;DHT22;4024;52.172;5.378;2022-09-09T13:35:45;21.30;99.90
7958;DHT22;4024;52.172;5.378;2022-09-09T13:38:16;21.40;99.90
7958;DHT22;4024;52.172;5.378;2022-09-09T13:41:02;21.40;99.90
7958;DHT22;4024;52.172;5.378;2022-09-09T13:43:38;21.40;99.90
7958;DHT22;4024;52.172;5.378;2022-09-09T13:48:57;21.40;99.90
7958;DHT22;4024;52.172;5.378;2022-09-09T13:51:47;21.30;99.90
7958;DHT22;4024;52.172;5.378;2022-09-09T13:54:18;21.20;99.90
7958;DHT22;4024;52.172;5.378;2022-09-09T13:56:44;21.10;99.90
7958;DHT22;4024;52.172;5.378;2022-09-09T13:59:15;21.10;99.90
7958;DHT22;4024;52.172;5.378;2022-09-09T14:01:42;21.00;99.90
7958;DHT22;4024;52.172;5.378;2022-09-09T14:04:08;21.00;99.90
7958;DHT22;4024;52.172;5.378;2022-09-09T14:06:38;21.00;99.90
7958;DHT22;4024;52.172;5.378;2022-09-09T14:09:10;21.00;99.90
7958;DHT22;4024;52.172;5.378;2022-09-09T14:11:37;21.00;99.90
7958;DHT22;4024;52.172;5.378;2022-09-09T14:14:03;20.90;99.90
7958;DHT22;4024;52.172;5.378;2022-09-09T14:16:29;21.00;99.90
7958;DHT22;4024;52.172;5.378;2022-09-09T14:18:55;21.00;99.90
7958;DHT22;4024;52.172;5.378;2022-09-09T14:21:25;21.00;99.90
7958;DHT22;4024;52.172;5.378;2022-09-09T14:23:51;21.00;99.90
7958;DHT22;4024;52.172;5.378;2022-09-09T14:26:18;21.00;99.90
7958;DHT22;4024;52.172;5.378;2022-09-09T14:28:47;21.00;99.90
7958;DHT22;4024;52.172;5.378;2022-09-09T14:31:13;21.00;99.90
7958;DHT22;4024;52.172;5.378;2022-09-09T14:33:39;21.00;99.90
7958;DHT22;4024;52.172;5.378;2022-09-09T14:36:05;21.00;99.90
7958;DHT22;4024;52.172;5.378;2022-09-09T14:38:33;21.00;99.90
7958;DHT22;4024;52.172;5.378;2022-09-09T14:41:00;21.00;99.90
7958;DHT22;4024;52.172;5.378;2022-09-09T14:43:28;21.00;99.90
7958;DHT22;4024;52.172;5.378;2022-09-09T14:45:55;21.00;99.90
7958;DHT22;4024;52.172;5.378;2022-09-09T14:48:21;21.00;99.90
7958;DHT22;4024;52.172;5.378;2022-09-09T14:50:47;21.00;99.90
7958;DHT22;4024;52.172;5.378;2022-09-09T14:53:16;20.90;99.90
7958;DHT22;4024;52.172;5.378;2022-09-09T14:55:42;20.90;99.90
7958;DHT22;4024;52.172;5.378;2022-09-09T14:58:08;20.80;99.90
7958;DHT22;4024;52.172;5.378;2022-09-09T15:00:33;20.80;99.90
7958;DHT22;4024;52.172;5.378;2022-09-09T15:02:59;20.80;99.90
7958;DHT22;4024;52.172;5.378;2022-09-09T15:05:25;20.80;99.90
7958;DHT22;4024;52.172;5.378;2022-09-09T15:07:50;20.70;99.90
7958;DHT22;4024;52.172;5.378;2022-09-09T15:10:16;20.80;99.90
7958;DHT22;4024;52.172;5.378;2022-09-09T15:12:43;20.70;99.90
7958;DHT22;4024;52.172;5.378;2022-09-09T15:15:09;20.80;99.90
7958;DHT22;4024;52.172;5.378;2022-09-09T15:17:35;20.80;99.90
7958;DHT22;4024;52.172;5.378;2022-09-09T15:20:03;20.90;99.90
7958;DHT22;4024;52.172;5.378;2022-09-09T15:22:31;21.00;99.90
7958;DHT22;4024;52.172;5.378;2022-09-09T15:24:57;21.00;99.90
7958;DHT22;4024;52.172;5.378;2022-09-09T15:27:23;21.10;99.90
7958;DHT22;4024;52.172;5.378;2022-09-09T15:29:49;21.10;99.90
7958;DHT22;4024;52.172;5.378;2022-09-09T15:32:15;21.10;99.90
7958;DHT22;4024;52.172;5.378;2022-09-09T15:34:41;21.20;99.90
7958;DHT22;4024;52.172;5.378;2022-09-09T15:37:10;21.20;99.90
7958;DHT22;4024;52.172;5.378;2022-09-09T15:39:38;21.30;99.90
7958;DHT22;4024;52.172;5.378;2022-09-09T15:42:04;21.20;99.90
7958;DHT22;4024;52.172;5.378;2022-09-09T15:44:38;21.20;99.90
7958;DHT22;4024;52.172;5.378;2022-09-09T15:47:04;21.20;99.90
7958;DHT22;4024;52.172;5.378;2022-09-09T15:49:30;21.20;99.90
7958;DHT22;4024;52.172;5.378;2022-09-09T15:51:58;21.10;99.90
7958;DHT22;4024;52.172;5.378;2022-09-09T15:54:31;21.10;99.90
7958;DHT22;4024;52.172;5.378;2022-09-09T15:57:00;21.10;99.90
7958;DHT22;4024;52.172;5.378;2022-09-09T15:59:28;21.10;99.90
7958;DHT22;4024;52.172;5.378;2022-09-09T16:01:55;21.00;99.90
7958;DHT22;4024;52.172;5.378;2022-09-09T16:04:22;21.00;99.90
7958;DHT22;4024;52.172;5.378;2022-09-09T16:06:52;21.00;99.90
7958;DHT22;4024;52.172;5.378;2022-09-09T16:09:18;21.00;99.90
7958;DHT22;4024;52.172;5.378;2022-09-09T16:11:44;21.00;99.90
7958;DHT22;4024;52.172;5.378;2022-09-09T16:14:11;21.00;99.90
7958;DHT22;4024;52.172;5.378;2022-09-09T16:16:37;21.00;99.90
7958;DHT22;4024;52.172;5.378;2022-09-09T16:19:05;20.90;99.90
7958;DHT22;4024;52.172;5.378;2022-09-09T16:21:34;20.90;99.90
7958;DHT22;4024;52.172;5.378;2022-09-09T16:24:02;20.90;99.90
7958;DHT22;4024;52.172;5.378;2022-09-09T16:26:29;20.90;99.90
7958;DHT22;4024;52.172;5.378;2022-09-09T16:28:58;20.90;99.90
7958;DHT22;4024;52.172;5.378;2022-09-09T16:34:02;20.90;99.90
7958;DHT22;4024;52.172;5.378;2022-09-09T16:36:30;20.90;99.90
7958;DHT22;4024;52.172;5.378;2022-09-09T16:39:01;20.80;99.90
7958;DHT22;4024;52.172;5.378;2022-09-09T16:41:29;20.80;99.90
7958;DHT22;4024;52.172;5.378;2022-09-09T16:44:00;20.80;99.90
7958;DHT22;4024;52.172;5.378;2022-09-09T16:46:28;20.80;99.90
7958;DHT22;4024;52.172;5.378;2022-09-09T16:48:56;20.80;99.90
7958;DHT22;4024;52.172;5.378;2022-09-09T16:51:31;20.80;99.90
7958;DHT22;4024;52.172;5.378;2022-09-09T16:53:59;20.70;99.90
7958;DHT22;4024;52.172;5.378;2022-09-09T16:56:27;20.80;99.90
7958;DHT22;4024;52.172;5.378;2022-09-09T16:58:56;20.70;99.90
7958;DHT22;4024;52.172;5.378;2022-09-09T17:01:23;20.70;99.90
7958;DHT22;4024;52.172;5.378;2022-09-09T17:03:56;20.70;99.90
7958;DHT22;4024;52.172;5.378;2022-09-09T17:06:22;20.60;99.90
7958;DHT22;4024;52.172;5.378;2022-09-09T17:08:54;20.70;99.90
7958;DHT22;4024;52.172;5.378;2022-09-09T17:11:20;20.60;99.90
7958;DHT22;4024;52.172;5.378;2022-09-09T17:13:46;20.60;99.90
7958;DHT22;4024;52.172;5.378;2022-09-09T17:16:14;20.60;99.90
7958;DHT22;4024;52.172;5.378;2022-09-09T17:18:41;20.60;99.90
7958;DHT22;4024;52.172;5.378;2022-09-09T17:21:09;20.60;99.90
7958;DHT22;4024;52.172;5.378;2022-09-09T17:23:36;20.50;99.90
7958;DHT22;4024;52.172;5.378;2022-09-09T17:26:05;20.50;99.90
7958;DHT22;4024;52.172;5.378;2022-09-09T17:28:33;20.50;99.90
7958;DHT22;4024;52.172;5.378;2022-09-09T17:31:00;20.50;99.90
7958;DHT22;4024;52.172;5.378;2022-09-09T17:33:28;20.50;99.90
7958;DHT22;4024;52.172;5.378;2022-09-09T17:35:57;20.50;99.90
7958;DHT22;4024;52.172;5.378;2022-09-09T17:38:27;20.40;99.90
7958;DHT22;4024;52.172;5.378;2022-09-09T17:41:06;20.40;99.90
7958;DHT22;4024;52.172;5.378;2022-09-09T17:43:32;20.40;99.90
7958;DHT22;4024;52.172;5.378;2022-09-09T17:48:42;20.40;99.90
7958;DHT22;4024;52.172;5.378;2022-09-09T17:51:11;20.30;99.90
7958;DHT22;4024;52.172;5.378;2022-09-09T17:53:43;20.40;99.90
7958;DHT22;4024;52.172;5.378;2022-09-09T17:56:11;20.40;99.90
7958;DHT22;4024;52.172;5.378;2022-09-09T17:58:38;20.30;99.90
7958;DHT22;4024;52.172;5.378;2022-09-09T18:01:22;20.30;99.90
7958;DHT22;4024;52.172;5.378;2022-09-09T18:03:49;20.30;99.90
7958;DHT22;4024;52.172;5.378;2022-09-09T18:06:21;20.30;99.90
7958;DHT22;4024;52.172;5.378;2022-09-09T18:08:52;20.30;99.90
7958;DHT22;4024;52.172;5.378;2022-09-09T18:11:20;20.30;99.90
7958;DHT22;4024;52.172;5.378;2022-09-09T18:13:56;20.30;99.90
7958;DHT22;4024;52.172;5.378;2022-09-09T18:16:23;20.30;99.90
7958;DHT22;4024;52.172;5.378;2022-09-09T18:18:51;20.20;99.90
7958;DHT22;4024;52.172;5.378;2022-09-09T18:21:18;20.30;99.90